Flordell Hills, Missouri
Current Conditions -  °F | °C
As of 9:51 PM on Friday 24 Oct 2014 (Local Time) from KSTL Reporting Station
Scattered Clouds Scattered Clouds  
Wind Chill: 67°   Ceiling: Unl
Heat Index: 67°   Visibility: 10mi
Dew Point: 49°   Wind: 5mph
Humidity: 52%   Direction: 190°S
Pressure: 30"   Gusts: NA
Location:  38.7423°N, 90.2608°W
Report Text: KSTL 250251Z 19004KT 10SM SCT250 19/09 A3000 RMK AO2 SLP153 T01940094 56003
Loading
Personal Weather Stations






























Interactive Weather Map
Tropical Storm Tracking
New forecast layout! Learn more

10-Day Weather Forecast

Advertisements
Track Severe Weather on mobile